sensor_id;sensor_type;location;lat;lon;timestamp;P1;durP1;ratioP1;P2;durP2;ratioP2
41446;SDS011;27185;52.040;4.490;2023-05-14T00:02:25;21.95;;;15.68;;
41446;SDS011;27185;52.040;4.490;2023-05-14T00:05:10;25.02;;;16.88;;
41446;SDS011;27185;52.040;4.490;2023-05-14T00:07:56;21.70;;;15.65;;
41446;SDS011;27185;52.040;4.490;2023-05-14T00:10:41;20.25;;;13.55;;
41446;SDS011;27185;52.040;4.490;2023-05-14T00:13:27;19.38;;;13.02;;
41446;SDS011;27185;52.040;4.490;2023-05-14T00:16:13;18.17;;;14.50;;
41446;SDS011;27185;52.040;4.490;2023-05-14T00:18:58;16.90;;;14.27;;
41446;SDS011;27185;52.040;4.490;2023-05-14T00:21:45;24.25;;;14.85;;
41446;SDS011;27185;52.040;4.490;2023-05-14T00:24:31;22.38;;;13.98;;
41446;SDS011;27185;52.040;4.490;2023-05-14T00:27:16;18.77;;;14.27;;
41446;SDS011;27185;52.040;4.490;2023-05-14T00:30:03;19.52;;;14.15;;
41446;SDS011;27185;52.040;4.490;2023-05-14T00:32:50;20.90;;;13.90;;
41446;SDS011;27185;52.040;4.490;2023-05-14T00:35:36;19.08;;;14.25;;
41446;SDS011;27185;52.040;4.490;2023-05-14T00:38:21;20.60;;;13.88;;
41446;SDS011;27185;52.040;4.490;2023-05-14T00:41:08;21.77;;;14.93;;
41446;SDS011;27185;52.040;4.490;2023-05-14T00:43:53;19.67;;;14.15;;
41446;SDS011;27185;52.040;4.490;2023-05-14T00:46:39;22.08;;;15.27;;
41446;SDS011;27185;52.040;4.490;2023-05-14T00:49:25;18.90;;;14.63;;
41446;SDS011;27185;52.040;4.490;2023-05-14T00:52:11;22.77;;;14.93;;
41446;SDS011;27185;52.040;4.490;2023-05-14T00:54:57;20.20;;;13.00;;
41446;SDS011;27185;52.040;4.490;2023-05-14T00:57:43;20.63;;;16.17;;
41446;SDS011;27185;52.040;4.490;2023-05-14T01:00:29;18.58;;;14.68;;
41446;SDS011;27185;52.040;4.490;2023-05-14T01:03:14;23.17;;;15.07;;
41446;SDS011;27185;52.040;4.490;2023-05-14T01:09:14;19.88;;;13.45;;
41446;SDS011;27185;52.040;4.490;2023-05-14T01:12:25;24.02;;;13.63;;
41446;SDS011;27185;52.040;4.490;2023-05-14T01:15:17;18.48;;;12.40;;
41446;SDS011;27185;52.040;4.490;2023-05-14T01:18:09;16.10;;;12.77;;
41446;SDS011;27185;52.040;4.490;2023-05-14T01:20:57;22.30;;;14.52;;
41446;SDS011;27185;52.040;4.490;2023-05-14T01:23:43;18.42;;;13.27;;
41446;SDS011;27185;52.040;4.490;2023-05-14T01:26:28;21.60;;;13.98;;
41446;SDS011;27185;52.040;4.490;2023-05-14T01:32:05;17.85;;;13.70;;
41446;SDS011;27185;52.040;4.490;2023-05-14T01:34:52;17.38;;;13.80;;
41446;SDS011;27185;52.040;4.490;2023-05-14T01:37:41;19.88;;;13.80;;
41446;SDS011;27185;52.040;4.490;2023-05-14T01:40:28;21.27;;;14.27;;
41446;SDS011;27185;52.040;4.490;2023-05-14T01:43:14;22.30;;;14.20;;
41446;SDS011;27185;52.040;4.490;2023-05-14T01:46:00;22.85;;;14.38;;
41446;SDS011;27185;52.040;4.490;2023-05-14T01:48:46;21.83;;;14.32;;
41446;SDS011;27185;52.040;4.490;2023-05-14T01:51:31;23.45;;;14.82;;
41446;SDS011;27185;52.040;4.490;2023-05-14T01:54:17;21.23;;;14.50;;
41446;SDS011;27185;52.040;4.490;2023-05-14T01:57:03;20.80;;;15.45;;
41446;SDS011;27185;52.040;4.490;2023-05-14T01:59:48;23.65;;;14.55;;
41446;SDS011;27185;52.040;4.490;2023-05-14T02:02:34;23.73;;;14.45;;
41446;SDS011;27185;52.040;4.490;2023-05-14T02:05:20;21.50;;;15.77;;
41446;SDS011;27185;52.040;4.490;2023-05-14T02:08:05;25.20;;;15.63;;
41446;SDS011;27185;52.040;4.490;2023-05-14T02:10:51;24.73;;;14.60;;
41446;SDS011;27185;52.040;4.490;2023-05-14T02:13:36;25.65;;;16.35;;
41446;SDS011;27185;52.040;4.490;2023-05-14T02:16:22;25.83;;;17.65;;
41446;SDS011;27185;52.040;4.490;2023-05-14T02:19:07;31.45;;;19.35;;
41446;SDS011;27185;52.040;4.490;2023-05-14T02:21:53;29.40;;;18.20;;
41446;SDS011;27185;52.040;4.490;2023-05-14T02:24:39;32.60;;;19.60;;
41446;SDS011;27185;52.040;4.490;2023-05-14T02:27:25;33.55;;;21.10;;
41446;SDS011;27185;52.040;4.490;2023-05-14T02:30:10;28.88;;;19.92;;
41446;SDS011;27185;52.040;4.490;2023-05-14T02:32:56;31.33;;;19.92;;
41446;SDS011;27185;52.040;4.490;2023-05-14T02:35:42;28.00;;;18.35;;
41446;SDS011;27185;52.040;4.490;2023-05-14T02:38:27;29.67;;;20.08;;
41446;SDS011;27185;52.040;4.490;2023-05-14T02:41:13;25.45;;;17.15;;
41446;SDS011;27185;52.040;4.490;2023-05-14T02:43:58;28.95;;;19.23;;
41446;SDS011;27185;52.040;4.490;2023-05-14T02:46:44;28.80;;;18.95;;
41446;SDS011;27185;52.040;4.490;2023-05-14T02:49:29;31.60;;;19.50;;
41446;SDS011;27185;52.040;4.490;2023-05-14T02:52:15;27.50;;;19.52;;
41446;SDS011;27185;52.040;4.490;2023-05-14T02:55:01;29.40;;;20.33;;
41446;SDS011;27185;52.040;4.490;2023-05-14T02:57:46;29.73;;;19.58;;
41446;SDS011;27185;52.040;4.490;2023-05-14T03:00:32;26.92;;;18.23;;
41446;SDS011;27185;52.040;4.490;2023-05-14T03:03:18;34.13;;;18.15;;
41446;SDS011;27185;52.040;4.490;2023-05-14T03:06:03;29.95;;;19.83;;
41446;SDS011;27185;52.040;4.490;2023-05-14T03:08:49;30.02;;;18.95;;
41446;SDS011;27185;52.040;4.490;2023-05-14T03:11:35;28.90;;;19.08;;
41446;SDS011;27185;52.040;4.490;2023-05-14T03:14:21;28.73;;;19.73;;
41446;SDS011;27185;52.040;4.490;2023-05-14T03:17:06;25.77;;;17.70;;
41446;SDS011;27185;52.040;4.490;2023-05-14T03:19:52;28.95;;;18.67;;
41446;SDS011;27185;52.040;4.490;2023-05-14T03:22:37;30.02;;;18.95;;
41446;SDS011;27185;52.040;4.490;2023-05-14T03:25:23;30.90;;;19.27;;
41446;SDS011;27185;52.040;4.490;2023-05-14T03:28:08;30.52;;;19.77;;
41446;SDS011;27185;52.040;4.490;2023-05-14T03:30:54;27.65;;;17.98;;
41446;SDS011;27185;52.040;4.490;2023-05-14T03:33:40;29.05;;;19.05;;
41446;SDS011;27185;52.040;4.490;2023-05-14T03:36:25;31.80;;;18.42;;
41446;SDS011;27185;52.040;4.490;2023-05-14T03:39:11;27.15;;;18.35;;
41446;SDS011;27185;52.040;4.490;2023-05-14T03:44:44;23.85;;;16.60;;
41446;SDS011;27185;52.040;4.490;2023-05-14T03:47:30;31.33;;;18.63;;
41446;SDS011;27185;52.040;4.490;2023-05-14T03:50:16;26.95;;;17.75;;
41446;SDS011;27185;52.040;4.490;2023-05-14T03:53:01;27.80;;;18.58;;
41446;SDS011;27185;52.040;4.490;2023-05-14T03:55:47;26.17;;;17.45;;
41446;SDS011;27185;52.040;4.490;2023-05-14T03:58:32;26.05;;;18.00;;
41446;SDS011;27185;52.040;4.490;2023-05-14T04:01:18;23.48;;;17.73;;
41446;SDS011;27185;52.040;4.490;2023-05-14T04:04:04;30.23;;;18.80;;
41446;SDS011;27185;52.040;4.490;2023-05-14T04:06:49;23.05;;;16.73;;
41446;SDS011;27185;52.040;4.490;2023-05-14T04:09:35;25.58;;;16.88;;
41446;SDS011;27185;52.040;4.490;2023-05-14T04:12:20;25.08;;;16.98;;
41446;SDS011;27185;52.040;4.490;2023-05-14T04:15:06;27.15;;;18.38;;
41446;SDS011;27185;52.040;4.490;2023-05-14T04:17:52;27.73;;;18.13;;
41446;SDS011;27185;52.040;4.490;2023-05-14T04:20:38;27.27;;;17.17;;
41446;SDS011;27185;52.040;4.490;2023-05-14T04:23:24;28.58;;;18.40;;
41446;SDS011;27185;52.040;4.490;2023-05-14T04:26:10;26.42;;;16.30;;
41446;SDS011;27185;52.040;4.490;2023-05-14T04:28:55;24.05;;;16.85;;
41446;SDS011;27185;52.040;4.490;2023-05-14T04:31:42;24.17;;;16.25;;
41446;SDS011;27185;52.040;4.490;2023-05-14T04:34:28;27.02;;;18.52;;
41446;SDS011;27185;52.040;4.490;2023-05-14T04:37:14;28.83;;;16.83;;
41446;SDS011;27185;52.040;4.490;2023-05-14T04:39:59;24.80;;;16.83;;
41446;SDS011;27185;52.040;4.490;2023-05-14T04:42:45;22.05;;;16.00;;
41446;SDS011;27185;52.040;4.490;2023-05-14T04:45:30;24.60;;;14.88;;
41446;SDS011;27185;52.040;4.490;2023-05-14T04:48:16;23.83;;;14.60;;
41446;SDS011;27185;52.040;4.490;2023-05-14T04:51:02;21.27;;;15.18;;
41446;SDS011;27185;52.040;4.490;2023-05-14T04:53:48;25.23;;;16.52;;
41446;SDS011;27185;52.040;4.490;2023-05-14T04:56:33;25.70;;;16.25;;
41446;SDS011;27185;52.040;4.490;2023-05-14T04:59:19;26.23;;;16.30;;
41446;SDS011;27185;52.040;4.490;2023-05-14T05:02:05;27.08;;;17.40;;
41446;SDS011;27185;52.040;4.490;2023-05-14T05:04:50;23.70;;;15.55;;
41446;SDS011;27185;52.040;4.490;2023-05-14T05:07:36;26.77;;;16.83;;
41446;SDS011;27185;52.040;4.490;2023-05-14T05:10:22;25.02;;;17.00;;
41446;SDS011;27185;52.040;4.490;2023-05-14T05:13:07;24.75;;;16.83;;
41446;SDS011;27185;52.040;4.490;2023-05-14T05:15:53;28.38;;;17.33;;
41446;SDS011;27185;52.040;4.490;2023-05-14T05:18:38;27.77;;;16.40;;
41446;SDS011;27185;52.040;4.490;2023-05-14T05:21:24;27.60;;;17.15;;
41446;SDS011;27185;52.040;4.490;2023-05-14T05:24:10;27.38;;;17.30;;
41446;SDS011;27185;52.040;4.490;2023-05-14T05:26:57;33.33;;;18.43;;
41446;SDS011;27185;52.040;4.490;2023-05-14T05:29:43;32.55;;;18.83;;
41446;SDS011;27185;52.040;4.490;2023-05-14T05:32:28;31.25;;;19.20;;
41446;SDS011;27185;52.040;4.490;2023-05-14T05:35:14;27.13;;;18.15;;
41446;SDS011;27185;52.040;4.490;2023-05-14T05:38:00;31.20;;;20.42;;
41446;SDS011;27185;52.040;4.490;2023-05-14T05:40:46;35.38;;;23.40;;
41446;SDS011;27185;52.040;4.490;2023-05-14T05:43:32;34.28;;;22.23;;
41446;SDS011;27185;52.040;4.490;2023-05-14T05:46:18;33.95;;;23.10;;
41446;SDS011;27185;52.040;4.490;2023-05-14T05:49:03;38.88;;;24.73;;
41446;SDS011;27185;52.040;4.490;2023-05-14T05:51:49;38.15;;;22.98;;
41446;SDS011;27185;52.040;4.490;2023-05-14T05:54:34;36.33;;;24.30;;
41446;SDS011;27185;52.040;4.490;2023-05-14T05:57:20;39.72;;;23.98;;
41446;SDS011;27185;52.040;4.490;2023-05-14T06:00:07;46.22;;;28.20;;
41446;SDS011;27185;52.040;4.490;2023-05-14T06:02:59;39.63;;;26.77;;
41446;SDS011;27185;52.040;4.490;2023-05-14T06:05:45;44.63;;;27.10;;
41446;SDS011;27185;52.040;4.490;2023-05-14T06:08:30;41.28;;;26.38;;
41446;SDS011;27185;52.040;4.490;2023-05-14T06:11:16;43.05;;;29.02;;
41446;SDS011;27185;52.040;4.490;2023-05-14T06:14:02;43.50;;;27.70;;
41446;SDS011;27185;52.040;4.490;2023-05-14T06:16:47;41.30;;;26.95;;
41446;SDS011;27185;52.040;4.490;2023-05-14T06:19:33;35.92;;;24.88;;
41446;SDS011;27185;52.040;4.490;2023-05-14T06:22:18;38.63;;;25.08;;
41446;SDS011;27185;52.040;4.490;2023-05-14T06:25:04;30.85;;;22.40;;
41446;SDS011;27185;52.040;4.490;2023-05-14T06:27:50;35.03;;;24.90;;
41446;SDS011;27185;52.040;4.490;2023-05-14T06:30:36;31.95;;;22.67;;
41446;SDS011;27185;52.040;4.490;2023-05-14T06:33:21;32.03;;;22.50;;
41446;SDS011;27185;52.040;4.490;2023-05-14T06:36:13;33.75;;;23.13;;
41446;SDS011;27185;52.040;4.490;2023-05-14T06:38:59;28.25;;;20.83;;
41446;SDS011;27185;52.040;4.490;2023-05-14T06:41:44;27.88;;;20.50;;
41446;SDS011;27185;52.040;4.490;2023-05-14T06:44:30;24.98;;;18.83;;
41446;SDS011;27185;52.040;4.490;2023-05-14T06:47:16;24.33;;;18.88;;
41446;SDS011;27185;52.040;4.490;2023-05-14T06:50:01;24.75;;;18.38;;
41446;SDS011;27185;52.040;4.490;2023-05-14T06:52:47;27.38;;;20.25;;
41446;SDS011;27185;52.040;4.490;2023-05-14T06:55:33;24.00;;;18.70;;
41446;SDS011;27185;52.040;4.490;2023-05-14T06:58:18;22.40;;;18.52;;
41446;SDS011;27185;52.040;4.490;2023-05-14T07:01:04;23.95;;;18.00;;
41446;SDS011;27185;52.040;4.490;2023-05-14T07:03:50;22.85;;;17.20;;
41446;SDS011;27185;52.040;4.490;2023-05-14T07:06:36;22.08;;;17.15;;
41446;SDS011;27185;52.040;4.490;2023-05-14T07:09:21;26.55;;;20.23;;
41446;SDS011;27185;52.040;4.490;2023-05-14T07:12:07;26.45;;;20.23;;
41446;SDS011;27185;52.040;4.490;2023-05-14T07:14:52;25.08;;;17.65;;
41446;SDS011;27185;52.040;4.490;2023-05-14T07:17:38;23.42;;;17.25;;
41446;SDS011;27185;52.040;4.490;2023-05-14T07:20:25;22.17;;;15.82;;
41446;SDS011;27185;52.040;4.490;2023-05-14T07:23:10;21.13;;;14.40;;
41446;SDS011;27185;52.040;4.490;2023-05-14T07:25:56;19.05;;;14.85;;
41446;SDS011;27185;52.040;4.490;2023-05-14T07:28:41;18.42;;;13.65;;
41446;SDS011;27185;52.040;4.490;2023-05-14T07:31:27;15.95;;;12.85;;
41446;SDS011;27185;52.040;4.490;2023-05-14T07:34:12;14.95;;;12.60;;
41446;SDS011;27185;52.040;4.490;2023-05-14T07:36:58;19.17;;;13.15;;
41446;SDS011;27185;52.040;4.490;2023-05-14T07:39:44;17.65;;;12.20;;
41446;SDS011;27185;52.040;4.490;2023-05-14T07:42:29;21.50;;;12.88;;
41446;SDS011;27185;52.040;4.490;2023-05-14T07:45:15;20.85;;;14.60;;
41446;SDS011;27185;52.040;4.490;2023-05-14T07:48:01;18.73;;;14.63;;
41446;SDS011;27185;52.040;4.490;2023-05-14T07:50:47;21.65;;;13.90;;
41446;SDS011;27185;52.040;4.490;2023-05-14T07:53:33;21.55;;;12.63;;
41446;SDS011;27185;52.040;4.490;2023-05-14T07:56:18;17.65;;;11.77;;
41446;SDS011;27185;52.040;4.490;2023-05-14T07:59:05;22.80;;;12.50;;
41446;SDS011;27185;52.040;4.490;2023-05-14T08:01:51;17.15;;;11.50;;
41446;SDS011;27185;52.040;4.490;2023-05-14T08:04:37;19.10;;;10.80;;
41446;SDS011;27185;52.040;4.490;2023-05-14T08:07:23;16.13;;;10.48;;
41446;SDS011;27185;52.040;4.490;2023-05-14T08:10:08;13.32;;;10.02;;
41446;SDS011;27185;52.040;4.490;2023-05-14T08:12:54;16.75;;;10.15;;
41446;SDS011;27185;52.040;4.490;2023-05-14T08:15:40;15.90;;;9.93;;
41446;SDS011;27185;52.040;4.490;2023-05-14T08:18:26;13.82;;;9.60;;
41446;SDS011;27185;52.040;4.490;2023-05-14T08:21:11;17.10;;;10.07;;
41446;SDS011;27185;52.040;4.490;2023-05-14T08:23:57;16.33;;;9.40;;
41446;SDS011;27185;52.040;4.490;2023-05-14T08:26:42;11.07;;;8.73;;
41446;SDS011;27185;52.040;4.490;2023-05-14T08:29:28;18.13;;;9.52;;
41446;SDS011;27185;52.040;4.490;2023-05-14T08:32:14;15.77;;;8.82;;
41446;SDS011;27185;52.040;4.490;2023-05-14T08:34:59;15.05;;;7.80;;
41446;SDS011;27185;52.040;4.490;2023-05-14T08:37:45;14.13;;;8.20;;
41446;SDS011;27185;52.040;4.490;2023-05-14T08:40:30;15.35;;;9.00;;
41446;SDS011;27185;52.040;4.490;2023-05-14T08:43:17;17.20;;;8.70;;
41446;SDS011;27185;52.040;4.490;2023-05-14T08:46:07;14.88;;;8.00;;
41446;SDS011;27185;52.040;4.490;2023-05-14T08:49:04;14.85;;;8.13;;
41446;SDS011;27185;52.040;4.490;2023-05-14T08:52:04;15.70;;;8.40;;
41446;SDS011;27185;52.040;4.490;2023-05-14T08:54:50;21.27;;;7.75;;
41446;SDS011;27185;52.040;4.490;2023-05-14T08:57:39;12.57;;;7.45;;
41446;SDS011;27185;52.040;4.490;2023-05-14T09:00:24;12.48;;;7.47;;
41446;SDS011;27185;52.040;4.490;2023-05-14T09:03:10;15.80;;;7.68;;
41446;SDS011;27185;52.040;4.490;2023-05-14T09:05:56;10.70;;;7.00;;
41446;SDS011;27185;52.040;4.490;2023-05-14T09:08:43;19.52;;;7.85;;
41446;SDS011;27185;52.040;4.490;2023-05-14T09:11:29;15.73;;;6.85;;
41446;SDS011;27185;52.040;4.490;2023-05-14T09:14:15;12.77;;;7.22;;
41446;SDS011;27185;52.040;4.490;2023-05-14T09:17:01;11.27;;;6.78;;
41446;SDS011;27185;52.040;4.490;2023-05-14T09:19:47;14.45;;;6.15;;
41446;SDS011;27185;52.040;4.490;2023-05-14T09:22:33;11.10;;;6.32;;
41446;SDS011;27185;52.040;4.490;2023-05-14T09:25:19;11.98;;;6.57;;
41446;SDS011;27185;52.040;4.490;2023-05-14T09:28:11;12.57;;;6.07;;
41446;SDS011;27185;52.040;4.490;2023-05-14T09:31:01;11.77;;;6.53;;
41446;SDS011;27185;52.040;4.490;2023-05-14T09:33:50;13.63;;;5.95;;
41446;SDS011;27185;52.040;4.490;2023-05-14T09:36:36;10.02;;;5.82;;
41446;SDS011;27185;52.040;4.490;2023-05-14T09:39:22;15.95;;;6.15;;
41446;SDS011;27185;52.040;4.490;2023-05-14T09:42:09;13.93;;;5.53;;
41446;SDS011;27185;52.040;4.490;2023-05-14T09:44:55;14.20;;;6.03;;
41446;SDS011;27185;52.040;4.490;2023-05-14T09:47:40;12.05;;;5.70;;
41446;SDS011;27185;52.040;4.490;2023-05-14T09:50:26;15.80;;;6.18;;
41446;SDS011;27185;52.040;4.490;2023-05-14T09:53:12;16.33;;;6.47;;
41446;SDS011;27185;52.040;4.490;2023-05-14T09:55:58;13.88;;;6.47;;
41446;SDS011;27185;52.040;4.490;2023-05-14T09:58:43;12.38;;;6.22;;
41446;SDS011;27185;52.040;4.490;2023-05-14T10:01:29;12.57;;;6.15;;
41446;SDS011;27185;52.040;4.490;2023-05-14T10:04:16;15.48;;;6.40;;
41446;SDS011;27185;52.040;4.490;2023-05-14T10:07:02;11.52;;;5.97;;
41446;SDS011;27185;52.040;4.490;2023-05-14T10:09:50;11.02;;;6.30;;
41446;SDS011;27185;52.040;4.490;2023-05-14T10:12:41;19.65;;;6.30;;
41446;SDS011;27185;52.040;4.490;2023-05-14T10:15:42;14.90;;;6.18;;
41446;SDS011;27185;52.040;4.490;2023-05-14T10:18:35;14.90;;;6.38;;
41446;SDS011;27185;52.040;4.490;2023-05-14T10:21:27;16.27;;;6.45;;
41446;SDS011;27185;52.040;4.490;2023-05-14T10:24:15;10.90;;;5.13;;
41446;SDS011;27185;52.040;4.490;2023-05-14T10:27:02;12.32;;;6.10;;
41446;SDS011;27185;52.040;4.490;2023-05-14T10:29:52;13.55;;;7.03;;
41446;SDS011;27185;52.040;4.490;2023-05-14T10:32:38;14.45;;;6.97;;
41446;SDS011;27185;52.040;4.490;2023-05-14T10:35:25;10.90;;;5.45;;
41446;SDS011;27185;52.040;4.490;2023-05-14T10:38:13;11.50;;;5.47;;
41446;SDS011;27185;52.040;4.490;2023-05-14T10:41:00;9.70;;;5.30;;
41446;SDS011;27185;52.040;4.490;2023-05-14T10:43:47;13.48;;;5.43;;
41446;SDS011;27185;52.040;4.490;2023-05-14T10:46:34;17.30;;;6.43;;
41446;SDS011;27185;52.040;4.490;2023-05-14T10:49:20;12.85;;;6.28;;
41446;SDS011;27185;52.040;4.490;2023-05-14T10:52:09;10.15;;;5.40;;
41446;SDS011;27185;52.040;4.490;2023-05-14T10:55:00;11.45;;;5.50;;
41446;SDS011;27185;52.040;4.490;2023-05-14T10:57:47;10.00;;;5.22;;
41446;SDS011;27185;52.040;4.490;2023-05-14T11:00:33;16.13;;;6.32;;
41446;SDS011;27185;52.040;4.490;2023-05-14T11:03:19;12.32;;;5.43;;
41446;SDS011;27185;52.040;4.490;2023-05-14T11:06:05;10.32;;;5.53;;
41446;SDS011;27185;52.040;4.490;2023-05-14T11:08:52;8.23;;;5.22;;
41446;SDS011;27185;52.040;4.490;2023-05-14T11:11:38;11.10;;;5.82;;
41446;SDS011;27185;52.040;4.490;2023-05-14T11:14:24;12.23;;;6.03;;
41446;SDS011;27185;52.040;4.490;2023-05-14T11:17:10;9.30;;;4.53;;
41446;SDS011;27185;52.040;4.490;2023-05-14T11:19:56;11.50;;;5.93;;
41446;SDS011;27185;52.040;4.490;2023-05-14T11:22:43;12.73;;;5.40;;
41446;SDS011;27185;52.040;4.490;2023-05-14T11:25:29;13.87;;;4.97;;
41446;SDS011;27185;52.040;4.490;2023-05-14T11:28:15;7.50;;;4.22;;
41446;SDS011;27185;52.040;4.490;2023-05-14T11:31:01;10.57;;;4.80;;
41446;SDS011;27185;52.040;4.490;2023-05-14T11:33:46;11.23;;;5.22;;
41446;SDS011;27185;52.040;4.490;2023-05-14T11:36:32;8.88;;;4.20;;
41446;SDS011;27185;52.040;4.490;2023-05-14T11:39:20;10.57;;;4.07;;
41446;SDS011;27185;52.040;4.490;2023-05-14T11:42:10;9.13;;;3.53;;
41446;SDS011;27185;52.040;4.490;2023-05-14T11:44:56;10.18;;;3.58;;
41446;SDS011;27185;52.040;4.490;2023-05-14T11:47:42;11.10;;;3.42;;
41446;SDS011;27185;52.040;4.490;2023-05-14T11:50:28;10.32;;;4.43;;
41446;SDS011;27185;52.040;4.490;2023-05-14T11:53:17;20.55;;;4.63;;
41446;SDS011;27185;52.040;4.490;2023-05-14T11:56:10;14.63;;;4.55;;
41446;SDS011;27185;52.040;4.490;2023-05-14T11:58:56;8.50;;;4.05;;
41446;SDS011;27185;52.040;4.490;2023-05-14T12:01:42;12.18;;;4.85;;
41446;SDS011;27185;52.040;4.490;2023-05-14T12:04:31;9.10;;;4.57;;
41446;SDS011;27185;52.040;4.490;2023-05-14T12:07:17;9.80;;;3.63;;
41446;SDS011;27185;52.040;4.490;2023-05-14T12:10:02;8.63;;;3.92;;
41446;SDS011;27185;52.040;4.490;2023-05-14T12:12:48;10.02;;;3.95;;
41446;SDS011;27185;52.040;4.490;2023-05-14T12:15:34;7.68;;;3.38;;
41446;SDS011;27185;52.040;4.490;2023-05-14T12:18:20;7.95;;;4.03;;
41446;SDS011;27185;52.040;4.490;2023-05-14T12:21:06;14.70;;;4.18;;
41446;SDS011;27185;52.040;4.490;2023-05-14T12:23:56;12.82;;;4.30;;
41446;SDS011;27185;52.040;4.490;2023-05-14T12:26:44;15.40;;;4.68;;
41446;SDS011;27185;52.040;4.490;2023-05-14T12:29:34;13.32;;;3.60;;
41446;SDS011;27185;52.040;4.490;2023-05-14T12:32:20;9.85;;;3.92;;
41446;SDS011;27185;52.040;4.490;2023-05-14T12:35:06;8.13;;;3.35;;
41446;SDS011;27185;52.040;4.490;2023-05-14T12:37:52;12.45;;;4.30;;
41446;SDS011;27185;52.040;4.490;2023-05-14T12:40:38;14.63;;;5.20;;
41446;SDS011;27185;52.040;4.490;2023-05-14T12:43:23;22.20;;;6.53;;
41446;SDS011;27185;52.040;4.490;2023-05-14T12:46:13;9.75;;;5.30;;
41446;SDS011;27185;52.040;4.490;2023-05-14T12:49:00;11.10;;;4.97;;
41446;SDS011;27185;52.040;4.490;2023-05-14T12:51:46;10.68;;;4.07;;
41446;SDS011;27185;52.040;4.490;2023-05-14T12:54:31;7.70;;;3.65;;
41446;SDS011;27185;52.040;4.490;2023-05-14T12:57:17;8.43;;;3.58;;
41446;SDS011;27185;52.040;4.490;2023-05-14T13:00:03;9.05;;;3.78;;
41446;SDS011;27185;52.040;4.490;2023-05-14T13:02:52;7.65;;;3.70;;
41446;SDS011;27185;52.040;4.490;2023-05-14T13:05:37;13.30;;;4.20;;
41446;SDS011;27185;52.040;4.490;2023-05-14T13:08:23;8.30;;;3.63;;
41446;SDS011;27185;52.040;4.490;2023-05-14T13:11:10;8.57;;;4.20;;
41446;SDS011;27185;52.040;4.490;2023-05-14T13:13:55;9.45;;;3.80;;
41446;SDS011;27185;52.040;4.490;2023-05-14T13:16:42;13.48;;;4.10;;
41446;SDS011;27185;52.040;4.490;2023-05-14T13:19:28;9.30;;;3.83;;
41446;SDS011;27185;52.040;4.490;2023-05-14T13:22:13;11.05;;;4.05;;
41446;SDS011;27185;52.040;4.490;2023-05-14T13:25:01;9.95;;;3.90;;
41446;SDS011;27185;52.040;4.490;2023-05-14T13:27:47;28.60;;;5.72;;
41446;SDS011;27185;52.040;4.490;2023-05-14T13:30:35;9.05;;;3.58;;
41446;SDS011;27185;52.040;4.490;2023-05-14T13:33:20;12.35;;;3.28;;
41446;SDS011;27185;52.040;4.490;2023-05-14T13:36:06;43.35;;;7.30;;
41446;SDS011;27185;52.040;4.490;2023-05-14T13:38:52;10.07;;;3.70;;
41446;SDS011;27185;52.040;4.490;2023-05-14T13:41:37;13.63;;;3.55;;
41446;SDS011;27185;52.040;4.490;2023-05-14T13:44:23;9.80;;;3.90;;
41446;SDS011;27185;52.040;4.490;2023-05-14T13:47:09;14.88;;;4.53;;
41446;SDS011;27185;52.040;4.490;2023-05-14T13:49:54;11.85;;;3.85;;
41446;SDS011;27185;52.040;4.490;2023-05-14T13:52:43;10.18;;;3.55;;
41446;SDS011;27185;52.040;4.490;2023-05-14T13:55:28;8.30;;;3.80;;
41446;SDS011;27185;52.040;4.490;2023-05-14T13:58:14;10.45;;;3.88;;
41446;SDS011;27185;52.040;4.490;2023-05-14T14:01:00;8.65;;;4.00;;
41446;SDS011;27185;52.040;4.490;2023-05-14T14:03:46;8.23;;;4.30;;
41446;SDS011;27185;52.040;4.490;2023-05-14T14:06:31;6.50;;;4.13;;
41446;SDS011;27185;52.040;4.490;2023-05-14T14:09:17;32.85;;;6.03;;
41446;SDS011;27185;52.040;4.490;2023-05-14T14:12:03;9.90;;;3.88;;
41446;SDS011;27185;52.040;4.490;2023-05-14T14:14:49;7.90;;;4.03;;
41446;SDS011;27185;52.040;4.490;2023-05-14T14:17:35;9.45;;;3.38;;
41446;SDS011;27185;52.040;4.490;2023-05-14T14:20:20;5.18;;;3.55;;
41446;SDS011;27185;52.040;4.490;2023-05-14T14:23:06;7.82;;;3.50;;
41446;SDS011;27185;52.040;4.490;2023-05-14T14:25:52;10.02;;;4.60;;
41446;SDS011;27185;52.040;4.490;2023-05-14T14:28:37;10.75;;;4.20;;
41446;SDS011;27185;52.040;4.490;2023-05-14T14:31:24;10.05;;;3.88;;
41446;SDS011;27185;52.040;4.490;2023-05-14T14:34:09;9.93;;;3.70;;
41446;SDS011;27185;52.040;4.490;2023-05-14T14:36:55;8.45;;;4.03;;
41446;SDS011;27185;52.040;4.490;2023-05-14T14:39:40;7.38;;;3.60;;
41446;SDS011;27185;52.040;4.490;2023-05-14T14:42:26;13.57;;;3.72;;
41446;SDS011;27185;52.040;4.490;2023-05-14T14:45:12;6.55;;;3.17;;
41446;SDS011;27185;52.040;4.490;2023-05-14T14:51:18;8.38;;;4.70;;
41446;SDS011;27185;52.040;4.490;2023-05-14T14:54:03;9.10;;;4.75;;
41446;SDS011;27185;52.040;4.490;2023-05-14T14:56:49;10.20;;;4.70;;
41446;SDS011;27185;52.040;4.490;2023-05-14T14:59:36;8.98;;;5.18;;
41446;SDS011;27185;52.040;4.490;2023-05-14T15:02:21;7.57;;;4.03;;
41446;SDS011;27185;52.040;4.490;2023-05-14T15:05:07;9.30;;;4.07;;
41446;SDS011;27185;52.040;4.490;2023-05-14T15:07:54;9.10;;;4.35;;
41446;SDS011;27185;52.040;4.490;2023-05-14T15:10:40;9.82;;;4.22;;
41446;SDS011;27185;52.040;4.490;2023-05-14T15:13:26;11.65;;;4.57;;
41446;SDS011;27185;52.040;4.490;2023-05-14T15:16:12;7.70;;;4.10;;
41446;SDS011;27185;52.040;4.490;2023-05-14T15:18:58;12.38;;;4.32;;
41446;SDS011;27185;52.040;4.490;2023-05-14T15:21:43;8.18;;;4.07;;
41446;SDS011;27185;52.040;4.490;2023-05-14T15:24:29;6.35;;;3.55;;
41446;SDS011;27185;52.040;4.490;2023-05-14T15:27:14;10.90;;;3.88;;
41446;SDS011;27185;52.040;4.490;2023-05-14T15:30:00;10.25;;;4.25;;
41446;SDS011;27185;52.040;4.490;2023-05-14T15:32:46;7.30;;;3.08;;
41446;SDS011;27185;52.040;4.490;2023-05-14T15:35:32;7.45;;;3.58;;
41446;SDS011;27185;52.040;4.490;2023-05-14T15:38:18;7.35;;;3.47;;
41446;SDS011;27185;52.040;4.490;2023-05-14T15:41:03;6.43;;;3.50;;
41446;SDS011;27185;52.040;4.490;2023-05-14T15:43:49;8.73;;;3.72;;
41446;SDS011;27185;52.040;4.490;2023-05-14T15:46:35;12.18;;;4.25;;
41446;SDS011;27185;52.040;4.490;2023-05-14T15:49:21;8.80;;;3.42;;
41446;SDS011;27185;52.040;4.490;2023-05-14T15:52:07;6.40;;;3.78;;
41446;SDS011;27185;52.040;4.490;2023-05-14T15:54:53;8.68;;;4.90;;
41446;SDS011;27185;52.040;4.490;2023-05-14T15:57:40;12.38;;;4.18;;
41446;SDS011;27185;52.040;4.490;2023-05-14T16:00:25;7.20;;;3.78;;
41446;SDS011;27185;52.040;4.490;2023-05-14T16:03:11;11.07;;;3.28;;
41446;SDS011;27185;52.040;4.490;2023-05-14T16:05:56;10.88;;;3.63;;
41446;SDS011;27185;52.040;4.490;2023-05-14T16:08:42;10.75;;;3.80;;
41446;SDS011;27185;52.040;4.490;2023-05-14T16:11:28;8.07;;;3.67;;
41446;SDS011;27185;52.040;4.490;2023-05-14T16:14:14;20.27;;;4.70;;
41446;SDS011;27185;52.040;4.490;2023-05-14T16:17:00;4.47;;;3.22;;
41446;SDS011;27185;52.040;4.490;2023-05-14T16:19:46;8.35;;;3.90;;
41446;SDS011;27185;52.040;4.490;2023-05-14T16:22:31;6.78;;;3.60;;
41446;SDS011;27185;52.040;4.490;2023-05-14T16:25:18;7.40;;;3.80;;
41446;SDS011;27185;52.040;4.490;2023-05-14T16:28:04;7.90;;;3.75;;
41446;SDS011;27185;52.040;4.490;2023-05-14T16:30:51;11.90;;;4.32;;
41446;SDS011;27185;52.040;4.490;2023-05-14T16:33:37;6.15;;;3.40;;
41446;SDS011;27185;52.040;4.490;2023-05-14T16:36:26;16.40;;;8.13;;